KELY

Ely Arpt / Yelland Field / Airport

Ely, Nevada, USA
KELY 251120Z 2512/2612 17009KT P6SM SKC FM251500 01007KT P6SM SKC FM260500 17007KT P6SM SKC
Issued Valid From Valid To
Sep-25 @ 11:20 UTC
(6 hours ago)
Sep-25 @ 12:00 UTC
(5 hours ago)
Sep-26 @ 12:00 UTC
(in 19 hours)
Expired Click to View Sep-25 @ 12:00 to Sep-25 @ 15:00
KELY 251120Z 2512/2612 17009KT P6SM SKC
Wind Visibility Clouds
170° at 9 knots Greater than 6 miles
  • Clear skies
From Sep-25 @ 15:00 to Sep-26 @ 05:00
FM251500 01007KT P6SM SKC
Wind Visibility Clouds
10° at 7 knots Greater than 6 miles
  • Clear skies
From Sep-26 @ 05:00 to Sep-26 @ 12:00
FM260500 17007KT P6SM SKC
Wind Visibility Clouds
170° at 7 knots Greater than 6 miles
  • Clear skies
KELY 251120Z 2512/2612 17009KT P6SM SKC FM251500 01007KT P6SM SKC FM260500 17007KT P6SM SKC
Issued Sep-25 @ 11:20 UTC
(6 hours ago)
Valid From Sep-25 @ 12:00 UTC
(5 hours ago)
Valid To Sep-26 @ 12:00 UTC
(in 19 hours)
Sep-25 @ 12:00 - Sep-25 @ 15:00
Wind Visibility
170° at 9 knots Greater than 6 miles
Clouds
  • Clear skies
From Sep-25 @ 15:00 - Sep-26 @ 05:00
Wind Visibility
10° at 7 knots Greater than 6 miles
Clouds
  • Clear skies
From Sep-26 @ 05:00 - Sep-26 @ 12:00
Wind Visibility
170° at 7 knots Greater than 6 miles
Clouds
  • Clear skies